createdAt,value
2017-06-23T00:02:06.668Z,21.95
2017-06-23T00:04:34.095Z,21.86
2017-06-23T00:07:01.996Z,21.85
2017-06-23T00:09:29.462Z,21.78
2017-06-23T00:11:59.082Z,21.77
2017-06-23T00:14:26.535Z,21.80
2017-06-23T00:16:54.028Z,21.81
2017-06-23T00:19:21.522Z,21.82
2017-06-23T00:21:49.052Z,21.81
2017-06-23T00:24:23.031Z,21.81
2017-06-23T00:26:51.788Z,21.80
2017-06-23T00:29:19.272Z,21.83
2017-06-23T00:31:47.858Z,21.79
2017-06-23T00:34:17.089Z,21.79
2017-06-23T00:36:44.819Z,21.80
2017-06-23T00:39:12.241Z,21.82
2017-06-23T00:41:39.689Z,21.78
2017-06-23T00:44:07.108Z,21.77
2017-06-23T00:46:35.260Z,21.78
2017-06-23T00:49:03.330Z,21.67
2017-06-23T00:51:30.797Z,21.61
2017-06-23T00:53:58.703Z,21.59
2017-06-23T00:56:27.867Z,21.58
2017-06-23T00:58:55.325Z,21.57
2017-06-23T01:01:22.742Z,21.64
2017-06-23T01:03:51.035Z,21.57
2017-06-23T01:06:20.066Z,21.54
2017-06-23T01:08:47.615Z,21.61
2017-06-23T01:11:15.990Z,21.70
2017-06-23T01:13:43.429Z,21.70
2017-06-23T01:16:11.483Z,21.61
2017-06-23T01:18:38.990Z,21.66
2017-06-23T01:21:06.433Z,21.69
2017-06-23T01:23:44.749Z,21.72
2017-06-23T01:26:12.188Z,21.68
2017-06-23T01:28:39.637Z,21.69
2017-06-23T01:31:07.305Z,21.65
2017-06-23T01:33:37.290Z,21.64
2017-06-23T01:36:04.968Z,21.64
2017-06-23T01:38:32.607Z,21.64
2017-06-23T01:41:00.803Z,21.65
2017-06-23T01:43:28.254Z,21.47
2017-06-23T01:45:57.036Z,21.44
2017-06-23T01:48:31.073Z,21.44
2017-06-23T01:50:58.914Z,21.46
2017-06-23T01:53:27.249Z,21.43
2017-06-23T01:55:54.694Z,21.43
2017-06-23T01:58:22.934Z,21.50
2017-06-23T02:00:50.864Z,21.53
2017-06-23T02:03:18.349Z,21.42
2017-06-23T02:05:46.164Z,21.49
2017-06-23T02:08:14.218Z,21.54
2017-06-23T02:10:42.567Z,21.52
2017-06-23T02:13:24.664Z,21.52
2017-06-23T02:15:52.116Z,21.51
2017-06-23T02:18:19.955Z,21.42
2017-06-23T02:20:47.568Z,21.45
2017-06-23T02:23:15.019Z,21.53
2017-06-23T02:25:44.198Z,21.50
2017-06-23T02:28:11.838Z,21.42
2017-06-23T02:30:41.643Z,21.40
2017-06-23T02:33:13.139Z,21.47
2017-06-23T02:35:41.022Z,21.53
2017-06-23T02:38:09.250Z,21.51
2017-06-23T02:40:36.707Z,21.56
2017-06-23T02:43:04.133Z,21.55
2017-06-23T02:45:31.571Z,21.62
2017-06-23T02:47:59.078Z,21.56
2017-06-23T02:50:26.554Z,21.56
2017-06-23T02:52:55.093Z,21.57
2017-06-23T02:55:23.247Z,21.60
2017-06-23T02:57:50.716Z,21.59
2017-06-23T03:00:18.171Z,21.52
2017-06-23T03:02:46.478Z,21.51
2017-06-23T03:05:13.942Z,21.48
2017-06-23T03:07:41.368Z,21.57
2017-06-23T03:10:09.091Z,21.55
2017-06-23T03:12:37.844Z,21.49
2017-06-23T03:15:05.634Z,21.45
2017-06-23T03:17:34.479Z,21.51
2017-06-23T03:20:02.235Z,21.46
2017-06-23T03:22:30.123Z,21.46
2017-06-23T03:24:58.511Z,21.40
2017-06-23T03:27:26.223Z,21.36
2017-06-23T03:29:57.520Z,21.21
2017-06-23T03:32:24.956Z,21.34
2017-06-23T03:34:52.396Z,21.34
2017-06-23T03:37:22.611Z,21.35
2017-06-23T03:39:50.043Z,21.40
2017-06-23T03:42:17.494Z,21.46
2017-06-23T03:44:45.133Z,21.35
2017-06-23T03:47:12.574Z,21.29
2017-06-23T03:49:40.375Z,21.30
2017-06-23T03:52:08.195Z,21.25
2017-06-23T03:54:35.686Z,21.35
2017-06-23T03:57:03.120Z,21.39
2017-06-23T03:59:30.734Z,21.43
2017-06-23T04:01:58.180Z,21.49
2017-06-23T04:04:25.997Z,21.52
2017-06-23T04:06:54.116Z,21.55
2017-06-23T04:09:23.099Z,21.56
2017-06-23T04:11:50.566Z,21.55
2017-06-23T04:14:20.817Z,21.55
2017-06-23T04:16:49.262Z,21.56
2017-06-23T04:19:16.680Z,21.56
2017-06-23T04:21:44.372Z,21.60
2017-06-23T04:24:12.235Z,21.60
2017-06-23T04:26:40.112Z,21.63
2017-06-23T04:29:08.391Z,21.63
2017-06-23T04:31:39.974Z,21.61
2017-06-23T04:34:10.511Z,21.68
2017-06-23T04:36:37.922Z,21.68
2017-06-23T04:39:05.351Z,21.71
2017-06-23T04:41:33.657Z,21.52
2017-06-23T04:44:01.428Z,21.55
2017-06-23T04:46:28.850Z,21.27
2017-06-23T04:48:56.303Z,21.33
2017-06-23T04:51:23.723Z,21.36
2017-06-23T04:53:51.158Z,21.39
2017-06-23T04:56:22.495Z,21.39
2017-06-23T04:58:51.199Z,21.39
2017-06-23T05:01:21.279Z,21.39
2017-06-23T05:03:48.761Z,21.32
2017-06-23T05:06:16.803Z,21.43
2017-06-23T05:08:44.231Z,21.31
2017-06-23T05:11:11.851Z,21.36
2017-06-23T05:13:39.275Z,21.44
2017-06-23T05:16:06.710Z,21.47
2017-06-23T05:18:34.144Z,21.49
2017-06-23T05:21:01.799Z,21.53
2017-06-23T05:23:29.210Z,21.53
2017-06-23T05:25:56.751Z,21.35
2017-06-23T05:28:24.531Z,21.19
2017-06-23T05:30:51.950Z,21.11
2017-06-23T05:33:19.530Z,21.15
2017-06-23T05:35:46.956Z,21.09
2017-06-23T05:38:14.690Z,21.17
2017-06-23T05:40:42.974Z,21.12
2017-06-23T05:43:10.402Z,21.07
2017-06-23T05:45:38.142Z,21.19
2017-06-23T05:48:05.907Z,21.30
2017-06-23T05:50:33.667Z,21.41
2017-06-23T05:53:01.091Z,21.58
2017-06-23T05:55:29.974Z,21.75
2017-06-23T05:57:57.730Z,21.86
2017-06-23T06:00:25.150Z,21.82
2017-06-23T06:02:53.583Z,21.72
2017-06-23T06:05:21.361Z,21.76
2017-06-23T06:07:48.789Z,21.82
2017-06-23T06:10:19.275Z,21.89
2017-06-23T06:12:47.867Z,22.06
2017-06-23T06:15:15.292Z,22.21
2017-06-23T06:17:49.251Z,22.06
2017-06-23T06:20:19.006Z,22.15
2017-06-23T06:22:46.638Z,22.04
2017-06-23T06:25:14.417Z,22.14
2017-06-23T06:27:41.849Z,22.08
2017-06-23T06:30:09.272Z,22.02
2017-06-23T06:32:37.226Z,22.22
2017-06-23T06:35:04.891Z,22.24
2017-06-23T06:37:32.305Z,22.01
2017-06-23T06:40:14.719Z,21.96
2017-06-23T06:42:42.148Z,21.88
2017-06-23T06:45:09.572Z,21.84
2017-06-23T06:47:37.102Z,21.92
2017-06-23T06:50:04.843Z,22.08
2017-06-23T06:52:32.606Z,22.25
2017-06-23T06:55:00.146Z,22.18
2017-06-23T06:57:27.885Z,22.23
2017-06-23T06:59:56.042Z,22.18
2017-06-23T07:02:24.332Z,22.02
2017-06-23T07:04:51.766Z,22.06
2017-06-23T07:07:20.319Z,22.04
2017-06-23T07:09:47.831Z,22.10
2017-06-23T07:12:15.429Z,22.05
2017-06-23T07:14:42.910Z,22.13
2017-06-23T07:17:12.921Z,22.27
2017-06-23T07:19:41.023Z,22.31
2017-06-23T07:22:08.448Z,22.27
2017-06-23T07:24:36.056Z,22.50
2017-06-23T07:27:03.951Z,22.47
2017-06-23T07:29:32.544Z,22.44
2017-06-23T07:32:00.182Z,22.46
2017-06-23T07:34:42.524Z,22.25
2017-06-23T07:37:10.660Z,22.32
2017-06-23T07:39:38.472Z,22.33
2017-06-23T07:42:06.271Z,22.42
2017-06-23T07:44:34.087Z,22.56
2017-06-23T07:47:04.540Z,22.50
2017-06-23T07:49:33.568Z,22.70
2017-06-23T07:52:01.650Z,22.87
2017-06-23T07:54:29.650Z,23.07
2017-06-23T07:56:57.107Z,22.99
2017-06-23T07:59:26.078Z,22.79
2017-06-23T08:01:53.562Z,22.65
2017-06-23T08:04:21.031Z,22.93
2017-06-23T08:06:49.357Z,22.99
2017-06-23T08:09:16.790Z,23.11
2017-06-23T08:11:44.222Z,23.37
2017-06-23T08:14:11.771Z,23.48
2017-06-23T08:16:39.247Z,23.39
2017-06-23T08:19:06.686Z,23.42
2017-06-23T08:21:34.464Z,23.53
2017-06-23T08:24:02.530Z,23.87
2017-06-23T08:26:29.975Z,24.17
2017-06-23T08:28:58.360Z,24.15
2017-06-23T08:31:25.796Z,24.27
2017-06-23T08:33:53.574Z,24.21
2017-06-23T08:36:21.499Z,24.36
2017-06-23T08:38:48.991Z,24.43
2017-06-23T08:41:16.433Z,24.31
2017-06-23T08:43:43.902Z,24.31
2017-06-23T08:46:13.695Z,24.39
2017-06-23T08:48:41.229Z,24.37
2017-06-23T08:51:09.554Z,24.18
2017-06-23T08:53:37.023Z,24.36
2017-06-23T08:56:05.104Z,24.52
2017-06-23T08:58:32.903Z,24.50
2017-06-23T09:01:01.167Z,24.26
2017-06-23T09:03:28.955Z,24.39
2017-06-23T09:05:57.076Z,24.32
2017-06-23T09:08:24.499Z,24.32
2017-06-23T09:10:51.956Z,24.26
2017-06-23T09:13:19.761Z,24.43
2017-06-23T09:15:47.811Z,24.43
2017-06-23T09:18:15.272Z,24.52
2017-06-23T09:20:44.139Z,24.48
2017-06-23T09:23:11.812Z,24.28
2017-06-23T09:25:39.803Z,24.36
2017-06-23T09:28:08.156Z,24.33
2017-06-23T09:30:35.588Z,24.52
2017-06-23T09:33:03.470Z,24.79
2017-06-23T09:35:31.410Z,24.77
2017-06-23T09:37:59.332Z,24.75
2017-06-23T09:40:26.786Z,24.60
2017-06-23T09:42:54.945Z,24.44
2017-06-23T09:45:22.374Z,24.61
2017-06-23T09:47:50.415Z,24.57
2017-06-23T09:50:18.770Z,24.40
2017-06-23T09:52:48.927Z,24.39
2017-06-23T09:55:16.384Z,24.53
2017-06-23T09:57:44.023Z,24.65
2017-06-23T10:00:11.455Z,24.57
2017-06-23T10:02:41.658Z,24.48
2017-06-23T10:05:09.098Z,24.54
2017-06-23T10:07:36.558Z,24.68
2017-06-23T10:10:04.351Z,25.14
2017-06-23T10:12:32.338Z,25.53
2017-06-23T10:15:06.623Z,26.02
2017-06-23T10:17:37.977Z,26.20
2017-06-23T10:20:05.672Z,26.22
2017-06-23T10:22:33.131Z,26.52
2017-06-23T10:25:00.578Z,26.28
2017-06-23T10:27:28.394Z,25.96
2017-06-23T10:29:55.875Z,25.93
2017-06-23T10:32:24.962Z,25.83
2017-06-23T10:34:52.387Z,25.95
2017-06-23T10:37:20.055Z,26.00
2017-06-23T10:39:47.947Z,26.07
2017-06-23T10:42:15.845Z,25.90
2017-06-23T10:44:43.759Z,25.81
2017-06-23T10:47:11.618Z,25.44
2017-06-23T10:49:39.186Z,25.44
2017-06-23T10:52:07.358Z,25.36
2017-06-23T10:54:36.444Z,25.38
2017-06-23T10:57:03.916Z,25.38
2017-06-23T10:59:33.703Z,25.47
2017-06-23T11:02:01.179Z,25.78
2017-06-23T11:04:28.627Z,26.20
2017-06-23T11:06:56.364Z,26.87
2017-06-23T11:09:23.807Z,27.11
2017-06-23T11:11:51.996Z,27.00
2017-06-23T11:14:19.681Z,26.79
2017-06-23T11:16:47.123Z,27.11
2017-06-23T11:19:15.895Z,27.55
2017-06-23T11:21:43.337Z,27.88
2017-06-23T11:24:14.938Z,28.08
2017-06-23T11:26:42.368Z,28.36
2017-06-23T11:29:11.209Z,28.59
2017-06-23T11:31:38.671Z,28.68
2017-06-23T11:34:06.435Z,28.59
2017-06-23T11:36:34.541Z,27.75
2017-06-23T11:39:02.380Z,28.08
2017-06-23T11:41:29.818Z,28.58
2017-06-23T11:43:57.474Z,28.34
2017-06-23T11:46:25.263Z,28.28
2017-06-23T11:48:52.788Z,27.87
2017-06-23T11:51:20.609Z,27.58
2017-06-23T11:53:49.259Z,27.37
2017-06-23T11:56:16.810Z,26.96
2017-06-23T11:58:45.219Z,26.88
2017-06-23T12:01:12.998Z,27.12
2017-06-23T12:03:44.142Z,27.23
2017-06-23T12:06:11.799Z,27.64
2017-06-23T12:08:39.805Z,27.82
2017-06-23T12:11:07.252Z,27.82
2017-06-23T12:13:34.695Z,28.36
2017-06-23T12:16:02.512Z,28.32
2017-06-23T12:18:29.929Z,28.08
2017-06-23T12:20:57.426Z,27.70
2017-06-23T12:23:25.163Z,27.63
2017-06-23T12:25:52.630Z,27.30
2017-06-23T12:28:20.497Z,27.83
2017-06-23T12:30:47.932Z,28.08
2017-06-23T12:33:15.776Z,28.06
2017-06-23T12:35:44.070Z,28.22
2017-06-23T12:38:11.611Z,27.52
2017-06-23T12:40:39.050Z,27.05
2017-06-23T12:43:06.826Z,26.80
2017-06-23T12:45:34.469Z,26.75
2017-06-23T12:48:02.462Z,27.17
2017-06-23T12:50:45.570Z,27.10
2017-06-23T12:53:13.026Z,27.18
2017-06-23T12:55:40.447Z,27.19
2017-06-23T12:58:07.883Z,26.81
2017-06-23T13:00:35.303Z,26.84
2017-06-23T13:03:02.891Z,26.94
2017-06-23T13:05:30.310Z,27.15
2017-06-23T13:07:58.066Z,27.58
2017-06-23T13:10:25.498Z,27.72
2017-06-23T13:12:53.151Z,27.40
2017-06-23T13:15:21.092Z,27.46
2017-06-23T13:17:48.515Z,27.58
2017-06-23T13:20:16.131Z,27.53
2017-06-23T13:22:43.555Z,27.91
2017-06-23T13:25:11.139Z,28.40
2017-06-23T13:27:38.620Z,28.43
2017-06-23T13:30:06.061Z,28.47
2017-06-23T13:32:33.498Z,28.53
2017-06-23T13:35:00.926Z,28.22
2017-06-23T13:37:30.814Z,28.10
2017-06-23T13:39:58.358Z,27.96
2017-06-23T13:42:25.788Z,28.01
2017-06-23T13:44:53.683Z,28.17
2017-06-23T13:47:21.122Z,28.54
2017-06-23T13:49:48.602Z,28.41
2017-06-23T13:52:20.840Z,28.44
2017-06-23T13:54:50.855Z,28.32
2017-06-23T13:57:18.291Z,28.40
2017-06-23T13:59:46.022Z,28.54
2017-06-23T14:02:13.530Z,28.17
2017-06-23T14:04:41.358Z,28.26
2017-06-23T14:07:09.156Z,28.32
2017-06-23T14:09:36.876Z,28.49
2017-06-23T14:12:04.520Z,28.70
2017-06-23T14:14:31.941Z,28.39
2017-06-23T14:16:59.573Z,27.94
2017-06-23T14:19:28.891Z,27.85
2017-06-23T14:21:56.315Z,27.81
2017-06-23T14:24:24.476Z,27.78
2017-06-23T14:26:51.901Z,27.72
2017-06-23T14:29:19.984Z,27.93
2017-06-23T14:31:49.940Z,28.18
2017-06-23T14:34:17.833Z,28.20
2017-06-23T14:36:47.686Z,28.18
2017-06-23T14:39:16.004Z,28.20
2017-06-23T14:41:46.124Z,28.24
2017-06-23T14:44:13.562Z,27.90
2017-06-23T14:46:41.026Z,27.97
2017-06-23T14:49:08.706Z,28.06
2017-06-23T14:51:37.114Z,27.82
2017-06-23T14:54:05.928Z,27.76
2017-06-23T14:56:33.838Z,27.80
2017-06-23T14:59:01.326Z,28.09
2017-06-23T15:01:28.786Z,27.79
2017-06-23T15:03:56.247Z,27.65
2017-06-23T15:06:23.872Z,27.87
2017-06-23T15:08:51.421Z,27.83
2017-06-23T15:11:19.230Z,28.01
2017-06-23T15:13:53.160Z,28.18
2017-06-23T15:16:21.092Z,28.05
2017-06-23T15:18:49.134Z,27.80
2017-06-23T15:21:16.574Z,27.78
2017-06-23T15:23:44.183Z,27.77
2017-06-23T15:26:11.633Z,27.44
2017-06-23T15:28:39.070Z,27.40
2017-06-23T15:31:06.758Z,27.56
2017-06-23T15:33:34.622Z,27.66
2017-06-23T15:36:02.071Z,27.26
2017-06-23T15:38:29.793Z,27.25
2017-06-23T15:40:57.237Z,27.26
2017-06-23T15:43:24.906Z,27.55
2017-06-23T15:45:52.374Z,27.56
2017-06-23T15:48:22.323Z,27.59
2017-06-23T15:50:49.777Z,27.43
2017-06-23T15:53:17.215Z,27.54
2017-06-23T15:55:44.814Z,27.43
2017-06-23T15:58:12.288Z,27.17
2017-06-23T16:00:46.579Z,27.14
2017-06-23T16:03:14.032Z,27.33
2017-06-23T16:05:41.497Z,27.24
2017-06-23T16:08:09.213Z,27.22
2017-06-23T16:10:36.695Z,27.12
2017-06-23T16:13:04.803Z,27.42
2017-06-23T16:15:32.249Z,27.15
2017-06-23T16:17:59.709Z,26.91
2017-06-23T16:20:27.481Z,27.13
2017-06-23T16:22:54.940Z,27.12
2017-06-23T16:25:25.207Z,26.84
2017-06-23T16:27:56.188Z,26.88
2017-06-23T16:30:23.607Z,27.08
2017-06-23T16:32:51.050Z,27.28
2017-06-23T16:35:18.831Z,27.34
2017-06-23T16:37:46.378Z,27.28
2017-06-23T16:40:14.238Z,27.38
2017-06-23T16:42:41.691Z,27.26
2017-06-23T16:45:09.310Z,26.85
2017-06-23T16:47:36.974Z,26.88
2017-06-23T16:50:07.271Z,26.96
2017-06-23T16:52:37.118Z,27.07
2017-06-23T16:55:05.034Z,27.18
2017-06-23T16:57:32.464Z,27.18
2017-06-23T17:00:00.884Z,27.10
2017-06-23T17:02:28.350Z,27.03
2017-06-23T17:04:55.828Z,26.74
2017-06-23T17:07:23.316Z,26.69
2017-06-23T17:10:05.216Z,26.65
2017-06-23T17:12:36.870Z,26.64
2017-06-23T17:15:04.314Z,26.65
2017-06-23T17:17:31.752Z,26.68
2017-06-23T17:19:59.655Z,26.68
2017-06-23T17:22:27.099Z,26.83
2017-06-23T17:24:54.722Z,26.84
2017-06-23T17:27:22.157Z,26.64
2017-06-23T17:29:50.060Z,26.42
2017-06-23T17:32:17.533Z,26.45
2017-06-23T17:34:44.951Z,26.52
2017-06-23T17:37:16.221Z,26.37
2017-06-23T17:39:43.645Z,26.48
2017-06-23T17:42:11.073Z,26.44
2017-06-23T17:44:38.870Z,26.42
2017-06-23T17:47:06.634Z,26.31
2017-06-23T17:49:34.105Z,26.36
2017-06-23T17:52:01.583Z,26.13
2017-06-23T17:54:29.017Z,26.06
2017-06-23T17:56:56.562Z,26.02
2017-06-23T17:59:24.043Z,25.96
2017-06-23T18:01:52.880Z,26.14
2017-06-23T18:04:20.798Z,26.31
2017-06-23T18:06:48.219Z,26.18
2017-06-23T18:09:15.655Z,26.12
2017-06-23T18:11:43.094Z,26.19
2017-06-23T18:14:10.583Z,26.17
2017-06-23T18:16:38.010Z,26.06
2017-06-23T18:19:05.856Z,26.21
2017-06-23T18:21:33.389Z,26.11
2017-06-23T18:24:01.451Z,26.09
2017-06-23T18:26:31.252Z,26.08
2017-06-23T18:28:58.990Z,26.05
2017-06-23T18:31:26.478Z,25.99
2017-06-23T18:33:53.949Z,26.08
2017-06-23T18:36:21.378Z,25.99
2017-06-23T18:38:49.203Z,25.97
2017-06-23T18:41:16.610Z,25.92
2017-06-23T18:43:44.890Z,25.85
2017-06-23T18:46:14.613Z,25.67
2017-06-23T18:48:43.770Z,25.65
2017-06-23T18:51:11.757Z,25.50
2017-06-23T18:53:39.201Z,25.30
2017-06-23T18:56:06.622Z,25.33
2017-06-23T18:58:34.050Z,25.34
2017-06-23T19:01:01.489Z,25.29
2017-06-23T19:03:29.439Z,25.34
2017-06-23T19:05:56.860Z,25.23
2017-06-23T19:08:24.318Z,25.14
2017-06-23T19:10:51.754Z,25.05
2017-06-23T19:13:19.753Z,24.97
2017-06-23T19:15:47.339Z,24.89
2017-06-23T19:18:14.799Z,24.80
2017-06-23T19:20:42.662Z,24.83
2017-06-23T19:23:10.455Z,24.66
2017-06-23T19:25:39.308Z,24.63
2017-06-23T19:28:07.934Z,24.56
2017-06-23T19:30:38.063Z,24.54
2017-06-23T19:33:05.481Z,24.49
2017-06-23T19:35:39.311Z,24.45
2017-06-23T19:38:06.730Z,24.41
2017-06-23T19:40:34.519Z,24.40
2017-06-23T19:43:02.630Z,24.36
2017-06-23T19:45:32.707Z,24.34
2017-06-23T19:48:00.351Z,24.30
2017-06-23T19:50:27.783Z,24.16
2017-06-23T19:52:55.382Z,24.17
2017-06-23T19:55:22.826Z,24.13
2017-06-23T19:57:50.775Z,24.06
2017-06-23T20:00:27.020Z,24.06
2017-06-23T20:02:54.434Z,23.95
2017-06-23T20:05:22.489Z,23.83
2017-06-23T20:07:49.912Z,23.82
2017-06-23T20:10:17.965Z,23.82
2017-06-23T20:12:45.398Z,23.73
2017-06-23T20:15:13.270Z,23.64
2017-06-23T20:17:41.044Z,23.61
2017-06-23T20:20:08.943Z,23.61
2017-06-23T20:22:36.358Z,23.58
2017-06-23T20:25:04.522Z,23.54
2017-06-23T20:27:31.949Z,23.49
2017-06-23T20:29:59.775Z,23.48
2017-06-23T20:32:27.539Z,23.39
2017-06-23T20:34:55.195Z,23.36
2017-06-23T20:37:23.098Z,23.31
2017-06-23T20:39:50.575Z,23.18
2017-06-23T20:42:20.124Z,23.24
2017-06-23T20:44:47.544Z,23.12
2017-06-23T20:47:15.302Z,23.11
2017-06-23T20:49:42.808Z,23.12
2017-06-23T20:52:10.246Z,23.09
2017-06-23T20:54:37.958Z,23.01
2017-06-23T20:57:06.739Z,22.98
2017-06-23T20:59:34.171Z,22.88
2017-06-23T21:02:01.602Z,22.81
2017-06-23T21:04:29.025Z,22.76
2017-06-23T21:06:57.877Z,22.71
2017-06-23T21:09:26.294Z,22.75
2017-06-23T21:11:53.738Z,22.68
2017-06-23T21:14:21.227Z,22.70
2017-06-23T21:16:49.011Z,22.66
2017-06-23T21:19:16.612Z,22.58
2017-06-23T21:21:44.722Z,22.50
2017-06-23T21:24:12.142Z,22.47
2017-06-23T21:26:39.613Z,22.32
2017-06-23T21:29:07.680Z,22.32
2017-06-23T21:31:35.773Z,22.30
2017-06-23T21:34:03.299Z,22.18
2017-06-23T21:36:30.743Z,22.17
2017-06-23T21:38:58.657Z,22.06
2017-06-23T21:41:37.948Z,22.02
2017-06-23T21:44:05.642Z,22.01
2017-06-23T21:46:33.335Z,21.92
2017-06-23T21:49:01.575Z,21.86
2017-06-23T21:51:29.166Z,21.86
2017-06-23T21:53:57.102Z,21.84
2017-06-23T21:56:26.252Z,21.74
2017-06-23T21:58:53.721Z,21.64
2017-06-23T22:01:22.318Z,21.63
2017-06-23T22:03:49.844Z,21.49
2017-06-23T22:06:17.259Z,21.46
2017-06-23T22:08:45.378Z,21.29
2017-06-23T22:11:13.390Z,21.18
2017-06-23T22:13:40.910Z,21.17
2017-06-23T22:16:09.892Z,21.10
2017-06-23T22:18:37.328Z,21.09
2017-06-23T22:21:11.318Z,21.03
2017-06-23T22:23:45.319Z,20.95
2017-06-23T22:26:12.934Z,20.93
2017-06-23T22:28:41.286Z,20.89
2017-06-23T22:31:08.715Z,20.87
2017-06-23T22:33:36.515Z,20.84
2017-06-23T22:36:06.480Z,20.70
2017-06-23T22:38:36.356Z,20.72
2017-06-23T22:41:03.786Z,20.59
2017-06-23T22:43:31.683Z,20.61
2017-06-23T22:45:59.468Z,20.60
2017-06-23T22:48:26.893Z,20.57
2017-06-23T22:50:54.379Z,20.43
2017-06-23T22:53:22.267Z,20.46
2017-06-23T22:55:53.541Z,20.43
2017-06-23T22:58:20.978Z,20.38
2017-06-23T23:00:48.865Z,20.28
2017-06-23T23:03:16.565Z,20.18
2017-06-23T23:05:43.975Z,20.21
2017-06-23T23:08:11.518Z,20.22
2017-06-23T23:10:48.353Z,20.12
2017-06-23T23:13:16.746Z,20.04
2017-06-23T23:15:44.211Z,19.97
2017-06-23T23:18:12.384Z,20.00
2017-06-23T23:20:42.448Z,19.81
2017-06-23T23:23:10.301Z,19.68
2017-06-23T23:25:38.066Z,19.69
2017-06-23T23:28:05.489Z,19.68
2017-06-23T23:30:33.127Z,19.58
2017-06-23T23:33:00.556Z,19.50
2017-06-23T23:35:30.866Z,19.40
2017-06-23T23:37:58.621Z,19.42
2017-06-23T23:40:26.263Z,19.30
2017-06-23T23:42:55.543Z,19.31
2017-06-23T23:45:23.330Z,19.22
2017-06-23T23:47:51.243Z,19.21
2017-06-23T23:50:18.677Z,19.13
2017-06-23T23:52:46.115Z,18.99
2017-06-23T23:55:13.543Z,18.96
2017-06-23T23:57:41.017Z,18.91
